Terminal Aerodrome Forecast
Issued by NWS Wilmington, NC

Home | Current Version | Previous Version | Text Only | Print | Product List | Glossary On
Versions: 1 2 3 4 5 6 7 8 9 10 11 12 13 14 15 16 17 18
000
FTUS42 KILM 280921 AAC
TAFILM
TAF AMD
KILM 280921Z 2809/2906 11007KT 6SM -SHRA SCT015 BKN035
      TEMPO 2809/2813 3SM SHRA SCT009 BKN020
     FM281300 13011KT 4SM TSRA BR OVC020CB
     FM281600 16012KT P6SM VCTS BKN025CB
     FM282200 18010KT P6SM VCTS BKN035CB
     FM290000 17008KT 4SM -TSRA OVC025CB=

USA.gov is the U.S. government's official web portal to all federal, state and local government web resources and services.